sensor_id;sensor_type;location;lat;lon;timestamp;temperature;humidity
9271;DHT22;4673;53.458;9.940;2022-10-22T00:02:10;14.50;99.90
9271;DHT22;4673;53.458;9.940;2022-10-22T00:04:40;14.50;99.90
9271;DHT22;4673;53.458;9.940;2022-10-22T00:07:06;14.60;99.90
9271;DHT22;4673;53.458;9.940;2022-10-22T00:09:31;14.60;99.90
9271;DHT22;4673;53.458;9.940;2022-10-22T00:11:57;14.50;99.90
9271;DHT22;4673;53.458;9.940;2022-10-22T00:14:23;14.60;99.90
9271;DHT22;4673;53.458;9.940;2022-10-22T00:16:48;14.60;99.90
9271;DHT22;4673;53.458;9.940;2022-10-22T00:19:14;14.60;99.90
9271;DHT22;4673;53.458;9.940;2022-10-22T00:21:40;14.60;99.90
9271;DHT22;4673;53.458;9.940;2022-10-22T00:24:05;14.60;99.90
9271;DHT22;4673;53.458;9.940;2022-10-22T00:26:31;14.60;99.90
9271;DHT22;4673;53.458;9.940;2022-10-22T00:28:56;14.70;99.90
9271;DHT22;4673;53.458;9.940;2022-10-22T00:31:22;14.70;99.90
9271;DHT22;4673;53.458;9.940;2022-10-22T00:33:47;14.70;99.90
9271;DHT22;4673;53.458;9.940;2022-10-22T00:36:14;14.60;99.90
9271;DHT22;4673;53.458;9.940;2022-10-22T00:38:40;14.70;99.90
9271;DHT22;4673;53.458;9.940;2022-10-22T00:41:07;14.80;99.90
9271;DHT22;4673;53.458;9.940;2022-10-22T00:43:33;14.70;99.90
9271;DHT22;4673;53.458;9.940;2022-10-22T00:45:58;14.60;99.90
9271;DHT22;4673;53.458;9.940;2022-10-22T00:48:29;14.70;99.90
9271;DHT22;4673;53.458;9.940;2022-10-22T00:51:00;14.70;99.90
9271;DHT22;4673;53.458;9.940;2022-10-22T00:53:40;14.70;99.90
9271;DHT22;4673;53.458;9.940;2022-10-22T00:56:08;14.70;99.90
9271;DHT22;4673;53.458;9.940;2022-10-22T00:58:36;14.70;99.90
9271;DHT22;4673;53.458;9.940;2022-10-22T01:01:04;14.70;99.90
9271;DHT22;4673;53.458;9.940;2022-10-22T01:03:31;14.70;99.90
9271;DHT22;4673;53.458;9.940;2022-10-22T01:05:59;14.70;99.90
9271;DHT22;4673;53.458;9.940;2022-10-22T01:08:27;14.70;99.90
9271;DHT22;4673;53.458;9.940;2022-10-22T01:11:12;14.70;99.90
9271;DHT22;4673;53.458;9.940;2022-10-22T01:14:04;14.60;99.90
9271;DHT22;4673;53.458;9.940;2022-10-22T01:22:14;14.50;99.90
9271;DHT22;4673;53.458;9.940;2022-10-22T01:25:07;14.50;99.90
9271;DHT22;4673;53.458;9.940;2022-10-22T01:30:14;14.40;99.90
9271;DHT22;4673;53.458;9.940;2022-10-22T01:32:50;14.40;99.90
9271;DHT22;4673;53.458;9.940;2022-10-22T01:35:26;14.30;99.90
9271;DHT22;4673;53.458;9.940;2022-10-22T01:37:56;14.30;99.90
9271;DHT22;4673;53.458;9.940;2022-10-22T01:40:23;14.10;99.90
9271;DHT22;4673;53.458;9.940;2022-10-22T01:42:58;14.00;99.90
9271;DHT22;4673;53.458;9.940;2022-10-22T01:45:25;14.00;99.90
9271;DHT22;4673;53.458;9.940;2022-10-22T01:56:11;13.60;99.90
9271;DHT22;4673;53.458;9.940;2022-10-22T02:01:52;13.50;99.90
9271;DHT22;4673;53.458;9.940;2022-10-22T02:04:26;13.40;99.90
9271;DHT22;4673;53.458;9.940;2022-10-22T02:06:56;13.30;99.90
9271;DHT22;4673;53.458;9.940;2022-10-22T02:09:24;13.30;99.90
9271;DHT22;4673;53.458;9.940;2022-10-22T02:11:52;13.20;99.90
9271;DHT22;4673;53.458;9.940;2022-10-22T02:14:18;13.20;99.90
9271;DHT22;4673;53.458;9.940;2022-10-22T02:16:47;13.10;99.90
9271;DHT22;4673;53.458;9.940;2022-10-22T02:19:36;13.10;99.90
9271;DHT22;4673;53.458;9.940;2022-10-22T02:22:03;13.10;99.90
9271;DHT22;4673;53.458;9.940;2022-10-22T02:24:29;13.10;99.90
9271;DHT22;4673;53.458;9.940;2022-10-22T02:29:38;13.00;99.90
9271;DHT22;4673;53.458;9.940;2022-10-22T02:32:08;12.90;99.90
9271;DHT22;4673;53.458;9.940;2022-10-22T02:34:34;12.80;99.90
9271;DHT22;4673;53.458;9.940;2022-10-22T02:37:01;12.80;99.90
9271;DHT22;4673;53.458;9.940;2022-10-22T02:39:28;12.80;99.90
9271;DHT22;4673;53.458;9.940;2022-10-22T02:41:55;12.70;99.90
9271;DHT22;4673;53.458;9.940;2022-10-22T02:44:22;12.60;99.90
9271;DHT22;4673;53.458;9.940;2022-10-22T02:46:49;12.60;99.90
9271;DHT22;4673;53.458;9.940;2022-10-22T02:49:14;12.60;99.90
9271;DHT22;4673;53.458;9.940;2022-10-22T02:51:40;12.50;99.90
9271;DHT22;4673;53.458;9.940;2022-10-22T02:54:06;12.50;99.90
9271;DHT22;4673;53.458;9.940;2022-10-22T02:56:32;12.50;99.90
9271;DHT22;4673;53.458;9.940;2022-10-22T02:58:57;12.50;99.90
9271;DHT22;4673;53.458;9.940;2022-10-22T03:01:23;12.50;99.90
9271;DHT22;4673;53.458;9.940;2022-10-22T03:03:49;12.40;99.90
9271;DHT22;4673;53.458;9.940;2022-10-22T03:06:15;12.40;99.90
9271;DHT22;4673;53.458;9.940;2022-10-22T03:08:40;12.40;99.90
9271;DHT22;4673;53.458;9.940;2022-10-22T03:11:06;12.40;99.90
9271;DHT22;4673;53.458;9.940;2022-10-22T03:13:32;12.30;99.90
9271;DHT22;4673;53.458;9.940;2022-10-22T03:15:57;12.30;99.90
9271;DHT22;4673;53.458;9.940;2022-10-22T03:18:23;12.30;99.90
9271;DHT22;4673;53.458;9.940;2022-10-22T03:20:49;12.20;99.90
9271;DHT22;4673;53.458;9.940;2022-10-22T03:23:18;12.20;99.90
9271;DHT22;4673;53.458;9.940;2022-10-22T03:25:45;12.20;99.90
9271;DHT22;4673;53.458;9.940;2022-10-22T03:28:14;12.20;99.90
9271;DHT22;4673;53.458;9.940;2022-10-22T03:30:41;12.20;99.90
9271;DHT22;4673;53.458;9.940;2022-10-22T03:33:07;12.20;99.90
9271;DHT22;4673;53.458;9.940;2022-10-22T03:35:40;12.20;99.90
9271;DHT22;4673;53.458;9.940;2022-10-22T03:38:07;12.20;99.90
9271;DHT22;4673;53.458;9.940;2022-10-22T03:40:33;12.20;99.90
9271;DHT22;4673;53.458;9.940;2022-10-22T03:42:59;12.20;99.90
9271;DHT22;4673;53.458;9.940;2022-10-22T03:45:24;12.20;99.90
9271;DHT22;4673;53.458;9.940;2022-10-22T03:47:50;12.20;99.90
9271;DHT22;4673;53.458;9.940;2022-10-22T03:50:15;12.20;99.90
9271;DHT22;4673;53.458;9.940;2022-10-22T03:52:41;12.20;99.90
9271;DHT22;4673;53.458;9.940;2022-10-22T03:55:08;12.20;99.90
9271;DHT22;4673;53.458;9.940;2022-10-22T03:57:34;12.30;99.90
9271;DHT22;4673;53.458;9.940;2022-10-22T04:00:00;12.40;99.90
9271;DHT22;4673;53.458;9.940;2022-10-22T04:02:25;12.40;99.90
9271;DHT22;4673;53.458;9.940;2022-10-22T04:04:51;12.40;99.90
9271;DHT22;4673;53.458;9.940;2022-10-22T04:07:17;12.50;99.90
9271;DHT22;4673;53.458;9.940;2022-10-22T04:09:42;12.50;99.90
9271;DHT22;4673;53.458;9.940;2022-10-22T04:12:08;12.50;99.90
9271;DHT22;4673;53.458;9.940;2022-10-22T04:14:34;12.50;99.90
9271;DHT22;4673;53.458;9.940;2022-10-22T04:17:00;12.50;99.90
9271;DHT22;4673;53.458;9.940;2022-10-22T04:19:25;12.50;99.90
9271;DHT22;4673;53.458;9.940;2022-10-22T04:21:51;12.40;99.90
9271;DHT22;4673;53.458;9.940;2022-10-22T04:24:17;12.50;99.90
9271;DHT22;4673;53.458;9.940;2022-10-22T04:26:42;12.40;99.90
9271;DHT22;4673;53.458;9.940;2022-10-22T04:29:09;12.30;99.90
9271;DHT22;4673;53.458;9.940;2022-10-22T04:31:34;12.30;99.90
9271;DHT22;4673;53.458;9.940;2022-10-22T04:34:00;12.30;99.90
9271;DHT22;4673;53.458;9.940;2022-10-22T04:36:27;12.30;99.90
9271;DHT22;4673;53.458;9.940;2022-10-22T04:38:58;12.40;99.90
9271;DHT22;4673;53.458;9.940;2022-10-22T04:41:29;12.30;99.90
9271;DHT22;4673;53.458;9.940;2022-10-22T04:43:56;12.30;99.90
9271;DHT22;4673;53.458;9.940;2022-10-22T04:46:23;12.20;99.90
9271;DHT22;4673;53.458;9.940;2022-10-22T04:48:50;12.20;99.90
9271;DHT22;4673;53.458;9.940;2022-10-22T04:51:17;12.10;99.90
9271;DHT22;4673;53.458;9.940;2022-10-22T04:53:44;12.10;99.90
9271;DHT22;4673;53.458;9.940;2022-10-22T04:56:16;12.10;99.90
9271;DHT22;4673;53.458;9.940;2022-10-22T04:58:53;12.10;99.90
9271;DHT22;4673;53.458;9.940;2022-10-22T05:01:22;12.10;99.90
9271;DHT22;4673;53.458;9.940;2022-10-22T05:03:49;12.00;99.90
9271;DHT22;4673;53.458;9.940;2022-10-22T05:06:16;12.00;99.90
9271;DHT22;4673;53.458;9.940;2022-10-22T05:08:41;12.00;99.90
9271;DHT22;4673;53.458;9.940;2022-10-22T05:11:17;11.90;99.90
9271;DHT22;4673;53.458;9.940;2022-10-22T05:13:43;11.90;99.90
9271;DHT22;4673;53.458;9.940;2022-10-22T05:16:09;11.90;99.90
9271;DHT22;4673;53.458;9.940;2022-10-22T05:18:36;11.80;99.90
9271;DHT22;4673;53.458;9.940;2022-10-22T05:21:03;11.80;99.90
9271;DHT22;4673;53.458;9.940;2022-10-22T05:23:29;11.80;99.90
9271;DHT22;4673;53.458;9.940;2022-10-22T05:25:55;11.80;99.90
9271;DHT22;4673;53.458;9.940;2022-10-22T05:28:21;11.70;99.90
9271;DHT22;4673;53.458;9.940;2022-10-22T05:30:54;11.70;99.90
9271;DHT22;4673;53.458;9.940;2022-10-22T05:33:20;11.60;99.90
9271;DHT22;4673;53.458;9.940;2022-10-22T05:35:49;11.60;99.90
9271;DHT22;4673;53.458;9.940;2022-10-22T05:38:15;11.60;99.90
9271;DHT22;4673;53.458;9.940;2022-10-22T05:40:41;11.60;99.90
9271;DHT22;4673;53.458;9.940;2022-10-22T05:43:07;11.60;99.90
9271;DHT22;4673;53.458;9.940;2022-10-22T05:45:39;11.60;99.90
9271;DHT22;4673;53.458;9.940;2022-10-22T05:48:06;11.60;99.90
9271;DHT22;4673;53.458;9.940;2022-10-22T05:50:36;11.60;99.90
9271;DHT22;4673;53.458;9.940;2022-10-22T05:53:03;11.70;99.90
9271;DHT22;4673;53.458;9.940;2022-10-22T05:55:29;11.70;99.90
9271;DHT22;4673;53.458;9.940;2022-10-22T05:57:54;11.80;99.90
9271;DHT22;4673;53.458;9.940;2022-10-22T06:00:20;11.80;99.90
9271;DHT22;4673;53.458;9.940;2022-10-22T06:02:49;11.90;99.90
9271;DHT22;4673;53.458;9.940;2022-10-22T06:05:16;12.00;99.90
9271;DHT22;4673;53.458;9.940;2022-10-22T06:07:41;12.10;99.90
9271;DHT22;4673;53.458;9.940;2022-10-22T06:10:13;12.20;99.90
9271;DHT22;4673;53.458;9.940;2022-10-22T06:12:39;12.20;99.90
9271;DHT22;4673;53.458;9.940;2022-10-22T06:15:05;12.20;99.90
9271;DHT22;4673;53.458;9.940;2022-10-22T06:17:31;12.20;99.90
9271;DHT22;4673;53.458;9.940;2022-10-22T06:19:57;12.30;99.90
9271;DHT22;4673;53.458;9.940;2022-10-22T06:22:22;12.30;99.90
9271;DHT22;4673;53.458;9.940;2022-10-22T06:24:48;12.40;99.90
9271;DHT22;4673;53.458;9.940;2022-10-22T06:27:13;12.40;99.90
9271;DHT22;4673;53.458;9.940;2022-10-22T06:29:39;12.40;99.90
9271;DHT22;4673;53.458;9.940;2022-10-22T06:32:05;12.50;99.90
9271;DHT22;4673;53.458;9.940;2022-10-22T06:34:30;12.60;99.90
9271;DHT22;4673;53.458;9.940;2022-10-22T06:36:56;12.60;99.90
9271;DHT22;4673;53.458;9.940;2022-10-22T06:39:21;12.60;99.90
9271;DHT22;4673;53.458;9.940;2022-10-22T06:41:47;12.60;99.90
9271;DHT22;4673;53.458;9.940;2022-10-22T06:44:14;12.50;99.90
9271;DHT22;4673;53.458;9.940;2022-10-22T06:46:40;12.60;99.90
9271;DHT22;4673;53.458;9.940;2022-10-22T06:49:06;12.50;99.90
9271;DHT22;4673;53.458;9.940;2022-10-22T06:51:31;12.60;99.90
9271;DHT22;4673;53.458;9.940;2022-10-22T06:53:57;12.60;99.90
9271;DHT22;4673;53.458;9.940;2022-10-22T06:56:24;12.60;99.90
9271;DHT22;4673;53.458;9.940;2022-10-22T06:58:52;12.70;99.90
9271;DHT22;4673;53.458;9.940;2022-10-22T07:01:22;12.70;99.90
9271;DHT22;4673;53.458;9.940;2022-10-22T07:03:50;12.80;99.90
9271;DHT22;4673;53.458;9.940;2022-10-22T07:06:16;12.80;99.90
9271;DHT22;4673;53.458;9.940;2022-10-22T07:08:42;12.80;99.90
9271;DHT22;4673;53.458;9.940;2022-10-22T07:13:38;12.90;99.90
9271;DHT22;4673;53.458;9.940;2022-10-22T07:16:06;13.00;99.90
9271;DHT22;4673;53.458;9.940;2022-10-22T07:18:32;13.00;99.90
9271;DHT22;4673;53.458;9.940;2022-10-22T07:20:59;13.10;99.90
9271;DHT22;4673;53.458;9.940;2022-10-22T07:23:25;13.10;99.90
9271;DHT22;4673;53.458;9.940;2022-10-22T07:25:51;13.20;99.90
9271;DHT22;4673;53.458;9.940;2022-10-22T07:28:16;13.20;99.90
9271;DHT22;4673;53.458;9.940;2022-10-22T07:30:42;13.30;99.90
9271;DHT22;4673;53.458;9.940;2022-10-22T07:33:08;13.40;99.90
9271;DHT22;4673;53.458;9.940;2022-10-22T07:35:33;13.50;99.90
9271;DHT22;4673;53.458;9.940;2022-10-22T07:38:00;13.70;99.90
9271;DHT22;4673;53.458;9.940;2022-10-22T07:40:26;13.80;99.90
9271;DHT22;4673;53.458;9.940;2022-10-22T07:42:51;13.90;99.90
9271;DHT22;4673;53.458;9.940;2022-10-22T07:45:17;14.10;99.90
9271;DHT22;4673;53.458;9.940;2022-10-22T07:47:43;14.30;99.90
9271;DHT22;4673;53.458;9.940;2022-10-22T07:50:09;14.40;99.90
9271;DHT22;4673;53.458;9.940;2022-10-22T07:52:34;14.50;99.90
9271;DHT22;4673;53.458;9.940;2022-10-22T07:55:00;14.60;99.90
9271;DHT22;4673;53.458;9.940;2022-10-22T07:57:26;14.80;99.90
9271;DHT22;4673;53.458;9.940;2022-10-22T07:59:51;14.90;99.90
9271;DHT22;4673;53.458;9.940;2022-10-22T08:02:17;15.00;99.90
9271;DHT22;4673;53.458;9.940;2022-10-22T08:04:43;15.10;99.90
9271;DHT22;4673;53.458;9.940;2022-10-22T08:07:08;15.20;99.90
9271;DHT22;4673;53.458;9.940;2022-10-22T08:09:34;15.30;99.90
9271;DHT22;4673;53.458;9.940;2022-10-22T08:11:59;15.30;99.90
9271;DHT22;4673;53.458;9.940;2022-10-22T08:14:25;15.50;99.90
9271;DHT22;4673;53.458;9.940;2022-10-22T08:16:51;15.60;99.90
9271;DHT22;4673;53.458;9.940;2022-10-22T08:19:16;15.80;99.90
9271;DHT22;4673;53.458;9.940;2022-10-22T08:21:45;15.90;99.90
9271;DHT22;4673;53.458;9.940;2022-10-22T08:24:11;16.00;99.90
9271;DHT22;4673;53.458;9.940;2022-10-22T08:26:37;16.10;99.90
9271;DHT22;4673;53.458;9.940;2022-10-22T08:29:03;16.10;99.90
9271;DHT22;4673;53.458;9.940;2022-10-22T08:31:28;16.20;99.90
9271;DHT22;4673;53.458;9.940;2022-10-22T08:33:54;16.20;99.90
9271;DHT22;4673;53.458;9.940;2022-10-22T08:36:20;16.10;99.90
9271;DHT22;4673;53.458;9.940;2022-10-22T08:38:46;16.10;99.90
9271;DHT22;4673;53.458;9.940;2022-10-22T08:41:20;16.10;99.90
9271;DHT22;4673;53.458;9.940;2022-10-22T08:44:02;16.10;99.90
9271;DHT22;4673;53.458;9.940;2022-10-22T08:46:46;16.00;99.90
9271;DHT22;4673;53.458;9.940;2022-10-22T08:49:33;16.00;99.90
9271;DHT22;4673;53.458;9.940;2022-10-22T08:52:00;16.00;99.60
9271;DHT22;4673;53.458;9.940;2022-10-22T08:57:25;15.90;98.40
9271;DHT22;4673;53.458;9.940;2022-10-22T09:02:29;16.00;97.80
9271;DHT22;4673;53.458;9.940;2022-10-22T09:05:12;16.10;97.50
9271;DHT22;4673;53.458;9.940;2022-10-22T09:07:42;16.10;96.60
9271;DHT22;4673;53.458;9.940;2022-10-22T09:10:10;16.20;95.70
9271;DHT22;4673;53.458;9.940;2022-10-22T09:12:37;16.20;94.90
9271;DHT22;4673;53.458;9.940;2022-10-22T09:15:03;16.30;94.70
9271;DHT22;4673;53.458;9.940;2022-10-22T09:17:49;16.40;94.10
9271;DHT22;4673;53.458;9.940;2022-10-22T09:20:24;16.40;93.20
9271;DHT22;4673;53.458;9.940;2022-10-22T09:25:56;16.50;92.60
9271;DHT22;4673;53.458;9.940;2022-10-22T09:28:23;16.60;92.20
9271;DHT22;4673;53.458;9.940;2022-10-22T09:30:48;16.60;91.60
9271;DHT22;4673;53.458;9.940;2022-10-22T09:33:26;16.60;90.50
9271;DHT22;4673;53.458;9.940;2022-10-22T09:35:56;16.60;90.00
9271;DHT22;4673;53.458;9.940;2022-10-22T09:38:26;16.70;89.50
9271;DHT22;4673;53.458;9.940;2022-10-22T09:40:54;16.70;89.40
9271;DHT22;4673;53.458;9.940;2022-10-22T09:43:20;16.80;89.10
9271;DHT22;4673;53.458;9.940;2022-10-22T09:45:47;16.80;88.10
9271;DHT22;4673;53.458;9.940;2022-10-22T09:48:22;16.80;87.90
9271;DHT22;4673;53.458;9.940;2022-10-22T09:51:18;16.90;87.50
9271;DHT22;4673;53.458;9.940;2022-10-22T09:53:55;16.90;86.90
9271;DHT22;4673;53.458;9.940;2022-10-22T09:58:49;17.00;86.00
9271;DHT22;4673;53.458;9.940;2022-10-22T10:01:19;17.10;86.00
9271;DHT22;4673;53.458;9.940;2022-10-22T10:03:48;17.20;86.00
9271;DHT22;4673;53.458;9.940;2022-10-22T10:06:18;17.40;85.70
9271;DHT22;4673;53.458;9.940;2022-10-22T10:08:45;17.30;85.20
9271;DHT22;4673;53.458;9.940;2022-10-22T10:16:41;17.60;83.60
9271;DHT22;4673;53.458;9.940;2022-10-22T10:27:24;18.00;81.60
9271;DHT22;4673;53.458;9.940;2022-10-22T10:30:18;18.00;81.20
9271;DHT22;4673;53.458;9.940;2022-10-22T10:33:18;18.10;80.90
9271;DHT22;4673;53.458;9.940;2022-10-22T10:36:09;18.00;80.20
9271;DHT22;4673;53.458;9.940;2022-10-22T10:38:59;17.90;80.20
9271;DHT22;4673;53.458;9.940;2022-10-22T10:50:10;18.00;79.90
9271;DHT22;4673;53.458;9.940;2022-10-22T10:52:52;17.90;79.30
9271;DHT22;4673;53.458;9.940;2022-10-22T10:55:35;17.90;80.00
9271;DHT22;4673;53.458;9.940;2022-10-22T11:04:51;17.80;80.60
9271;DHT22;4673;53.458;9.940;2022-10-22T11:07:27;17.80;80.70
9271;DHT22;4673;53.458;9.940;2022-10-22T11:10:02;17.80;80.80
9271;DHT22;4673;53.458;9.940;2022-10-22T11:12:40;17.90;80.80
9271;DHT22;4673;53.458;9.940;2022-10-22T11:15:36;17.90;81.00
9271;DHT22;4673;53.458;9.940;2022-10-22T11:18:13;17.90;80.80
9271;DHT22;4673;53.458;9.940;2022-10-22T11:23:41;18.00;80.20
9271;DHT22;4673;53.458;9.940;2022-10-22T11:26:15;18.10;80.30
9271;DHT22;4673;53.458;9.940;2022-10-22T11:28:46;18.20;79.30
9271;DHT22;4673;53.458;9.940;2022-10-22T11:31:15;18.20;78.70
9271;DHT22;4673;53.458;9.940;2022-10-22T11:36:21;18.40;78.30
9271;DHT22;4673;53.458;9.940;2022-10-22T11:38:47;18.40;77.90
9271;DHT22;4673;53.458;9.940;2022-10-22T11:41:16;18.40;77.90
9271;DHT22;4673;53.458;9.940;2022-10-22T11:44:08;18.40;77.70
9271;DHT22;4673;53.458;9.940;2022-10-22T11:46:57;18.40;77.80
9271;DHT22;4673;53.458;9.940;2022-10-22T11:49:40;18.30;77.60
9271;DHT22;4673;53.458;9.940;2022-10-22T11:52:26;18.30;77.90
9271;DHT22;4673;53.458;9.940;2022-10-22T11:54:54;18.30;78.60
9271;DHT22;4673;53.458;9.940;2022-10-22T11:57:20;18.30;78.70
9271;DHT22;4673;53.458;9.940;2022-10-22T11:59:57;18.30;78.90
9271;DHT22;4673;53.458;9.940;2022-10-22T12:02:43;18.30;78.90
9271;DHT22;4673;53.458;9.940;2022-10-22T12:10:21;18.40;79.30
9271;DHT22;4673;53.458;9.940;2022-10-22T12:12:57;18.50;78.90
9271;DHT22;4673;53.458;9.940;2022-10-22T12:15:28;18.50;78.70
9271;DHT22;4673;53.458;9.940;2022-10-22T12:18:02;18.40;78.80
9271;DHT22;4673;53.458;9.940;2022-10-22T12:20:29;18.40;79.00
9271;DHT22;4673;53.458;9.940;2022-10-22T12:22:56;18.40;79.40
9271;DHT22;4673;53.458;9.940;2022-10-22T12:25:29;18.50;79.70
9271;DHT22;4673;53.458;9.940;2022-10-22T12:27:57;18.60;79.60
9271;DHT22;4673;53.458;9.940;2022-10-22T12:30:32;18.70;79.60
9271;DHT22;4673;53.458;9.940;2022-10-22T12:33:01;18.80;77.90
9271;DHT22;4673;53.458;9.940;2022-10-22T12:35:41;18.90;77.40
9271;DHT22;4673;53.458;9.940;2022-10-22T12:38:22;19.00;76.80
9271;DHT22;4673;53.458;9.940;2022-10-22T12:40:49;18.90;76.40
9271;DHT22;4673;53.458;9.940;2022-10-22T12:43:23;19.00;76.30
9271;DHT22;4673;53.458;9.940;2022-10-22T12:45:50;19.00;76.20
9271;DHT22;4673;53.458;9.940;2022-10-22T12:48:18;18.90;76.30
9271;DHT22;4673;53.458;9.940;2022-10-22T12:50:48;18.90;76.60
9271;DHT22;4673;53.458;9.940;2022-10-22T12:53:18;18.80;76.50
9271;DHT22;4673;53.458;9.940;2022-10-22T12:55:46;18.80;77.10
9271;DHT22;4673;53.458;9.940;2022-10-22T12:58:18;18.80;76.90
9271;DHT22;4673;53.458;9.940;2022-10-22T13:00:45;18.90;77.30
9271;DHT22;4673;53.458;9.940;2022-10-22T13:03:32;19.00;77.20
9271;DHT22;4673;53.458;9.940;2022-10-22T13:08:42;19.30;75.80
9271;DHT22;4673;53.458;9.940;2022-10-22T13:11:10;19.40;74.80
9271;DHT22;4673;53.458;9.940;2022-10-22T13:18:44;19.50;73.40
9271;DHT22;4673;53.458;9.940;2022-10-22T13:21:34;19.40;72.50
9271;DHT22;4673;53.458;9.940;2022-10-22T13:24:18;19.30;73.00
9271;DHT22;4673;53.458;9.940;2022-10-22T13:26:48;19.30;73.10
9271;DHT22;4673;53.458;9.940;2022-10-22T13:29:16;19.30;72.50
9271;DHT22;4673;53.458;9.940;2022-10-22T13:31:48;19.30;72.60
9271;DHT22;4673;53.458;9.940;2022-10-22T13:34:18;19.30;72.30
9271;DHT22;4673;53.458;9.940;2022-10-22T13:36:44;19.30;72.80
9271;DHT22;4673;53.458;9.940;2022-10-22T13:39:21;19.10;72.50
9271;DHT22;4673;53.458;9.940;2022-10-22T13:41:48;19.10;72.80
9271;DHT22;4673;53.458;9.940;2022-10-22T13:44:19;19.10;72.80
9271;DHT22;4673;53.458;9.940;2022-10-22T13:46:46;19.00;72.50
9271;DHT22;4673;53.458;9.940;2022-10-22T13:49:15;18.80;72.80
9271;DHT22;4673;53.458;9.940;2022-10-22T13:51:41;18.70;73.30
9271;DHT22;4673;53.458;9.940;2022-10-22T13:54:14;18.50;73.70
9271;DHT22;4673;53.458;9.940;2022-10-22T13:56:41;18.60;74.40
9271;DHT22;4673;53.458;9.940;2022-10-22T13:59:08;18.50;75.00
9271;DHT22;4673;53.458;9.940;2022-10-22T14:01:35;18.60;75.00
9271;DHT22;4673;53.458;9.940;2022-10-22T14:04:04;18.60;74.10
9271;DHT22;4673;53.458;9.940;2022-10-22T14:06:31;18.50;73.80
9271;DHT22;4673;53.458;9.940;2022-10-22T14:09:03;18.50;73.90
9271;DHT22;4673;53.458;9.940;2022-10-22T14:11:28;18.50;73.60
9271;DHT22;4673;53.458;9.940;2022-10-22T14:13:57;18.50;73.40
9271;DHT22;4673;53.458;9.940;2022-10-22T14:16:25;18.40;73.50
9271;DHT22;4673;53.458;9.940;2022-10-22T14:18:52;18.40;72.80
9271;DHT22;4673;53.458;9.940;2022-10-22T14:21:18;18.40;73.00
9271;DHT22;4673;53.458;9.940;2022-10-22T14:23:45;18.40;72.50
9271;DHT22;4673;53.458;9.940;2022-10-22T14:26:21;18.40;72.80
9271;DHT22;4673;53.458;9.940;2022-10-22T14:28:48;18.40;72.80
9271;DHT22;4673;53.458;9.940;2022-10-22T14:31:14;18.40;72.60
9271;DHT22;4673;53.458;9.940;2022-10-22T14:33:40;18.40;73.10
9271;DHT22;4673;53.458;9.940;2022-10-22T14:36:05;18.30;73.30
9271;DHT22;4673;53.458;9.940;2022-10-22T14:38:31;18.20;73.80
9271;DHT22;4673;53.458;9.940;2022-10-22T14:40:58;18.10;74.00
9271;DHT22;4673;53.458;9.940;2022-10-22T14:43:27;18.10;74.00
9271;DHT22;4673;53.458;9.940;2022-10-22T14:45:53;18.00;74.00
9271;DHT22;4673;53.458;9.940;2022-10-22T14:48:19;17.80;74.60
9271;DHT22;4673;53.458;9.940;2022-10-22T14:50:46;17.70;74.90
9271;DHT22;4673;53.458;9.940;2022-10-22T14:53:12;17.60;75.40
9271;DHT22;4673;53.458;9.940;2022-10-22T14:55:39;17.50;75.50
9271;DHT22;4673;53.458;9.940;2022-10-22T14:58:05;17.40;75.90
9271;DHT22;4673;53.458;9.940;2022-10-22T15:00:31;17.30;76.70
9271;DHT22;4673;53.458;9.940;2022-10-22T15:02:58;17.20;77.10
9271;DHT22;4673;53.458;9.940;2022-10-22T15:05:24;17.10;77.80
9271;DHT22;4673;53.458;9.940;2022-10-22T15:07:50;17.00;78.30
9271;DHT22;4673;53.458;9.940;2022-10-22T15:10:15;16.90;78.60
9271;DHT22;4673;53.458;9.940;2022-10-22T15:12:41;16.80;78.90
9271;DHT22;4673;53.458;9.940;2022-10-22T15:15:07;16.70;79.40
9271;DHT22;4673;53.458;9.940;2022-10-22T15:17:32;16.60;79.80
9271;DHT22;4673;53.458;9.940;2022-10-22T15:19:58;16.60;79.90
9271;DHT22;4673;53.458;9.940;2022-10-22T15:22:28;16.60;80.20
9271;DHT22;4673;53.458;9.940;2022-10-22T15:24:56;16.50;80.30
9271;DHT22;4673;53.458;9.940;2022-10-22T15:27:22;16.50;80.70
9271;DHT22;4673;53.458;9.940;2022-10-22T15:29:48;16.60;80.90
9271;DHT22;4673;53.458;9.940;2022-10-22T15:32:13;16.60;82.10
9271;DHT22;4673;53.458;9.940;2022-10-22T15:34:39;16.50;83.90
9271;DHT22;4673;53.458;9.940;2022-10-22T15:37:08;16.30;85.40
9271;DHT22;4673;53.458;9.940;2022-10-22T15:39:34;16.20;86.60
9271;DHT22;4673;53.458;9.940;2022-10-22T15:42:03;16.10;87.50
9271;DHT22;4673;53.458;9.940;2022-10-22T15:44:30;16.00;88.50
9271;DHT22;4673;53.458;9.940;2022-10-22T15:46:56;15.90;89.30
9271;DHT22;4673;53.458;9.940;2022-10-22T15:49:23;15.80;89.90
9271;DHT22;4673;53.458;9.940;2022-10-22T15:51:49;15.80;90.70
9271;DHT22;4673;53.458;9.940;2022-10-22T15:54:18;15.70;91.20
9271;DHT22;4673;53.458;9.940;2022-10-22T15:56:44;15.60;91.60
9271;DHT22;4673;53.458;9.940;2022-10-22T15:59:12;15.50;92.10
9271;DHT22;4673;53.458;9.940;2022-10-22T16:01:38;15.40;92.40
9271;DHT22;4673;53.458;9.940;2022-10-22T16:04:04;15.40;92.90
9271;DHT22;4673;53.458;9.940;2022-10-22T16:06:33;15.30;93.30
9271;DHT22;4673;53.458;9.940;2022-10-22T16:09:01;15.20;93.50
9271;DHT22;4673;53.458;9.940;2022-10-22T16:11:28;15.10;94.20
9271;DHT22;4673;53.458;9.940;2022-10-22T16:13:55;15.00;94.60
9271;DHT22;4673;53.458;9.940;2022-10-22T16:16:22;15.00;95.00
9271;DHT22;4673;53.458;9.940;2022-10-22T16:18:49;15.00;95.40
9271;DHT22;4673;53.458;9.940;2022-10-22T16:21:15;14.90;95.80
9271;DHT22;4673;53.458;9.940;2022-10-22T16:23:41;14.90;96.20
9271;DHT22;4673;53.458;9.940;2022-10-22T16:26:07;14.80;96.40
9271;DHT22;4673;53.458;9.940;2022-10-22T16:28:33;14.90;96.90
9271;DHT22;4673;53.458;9.940;2022-10-22T16:31:03;14.90;97.20
9271;DHT22;4673;53.458;9.940;2022-10-22T16:33:30;14.80;97.40
9271;DHT22;4673;53.458;9.940;2022-10-22T16:35:56;14.80;97.70
9271;DHT22;4673;53.458;9.940;2022-10-22T16:38:21;14.80;98.00
9271;DHT22;4673;53.458;9.940;2022-10-22T16:40:47;14.80;98.20
9271;DHT22;4673;53.458;9.940;2022-10-22T16:43:13;14.80;98.40
9271;DHT22;4673;53.458;9.940;2022-10-22T16:45:46;14.80;98.70
9271;DHT22;4673;53.458;9.940;2022-10-22T16:48:12;14.80;98.90
9271;DHT22;4673;53.458;9.940;2022-10-22T16:50:38;14.80;99.10
9271;DHT22;4673;53.458;9.940;2022-10-22T16:53:03;14.70;99.30
9271;DHT22;4673;53.458;9.940;2022-10-22T16:55:29;14.70;99.50
9271;DHT22;4673;53.458;9.940;2022-10-22T16:57:55;14.70;99.70
9271;DHT22;4673;53.458;9.940;2022-10-22T17:00:20;14.70;99.90
9271;DHT22;4673;53.458;9.940;2022-10-22T17:02:55;14.80;99.90
9271;DHT22;4673;53.458;9.940;2022-10-22T17:05:21;14.70;99.90
9271;DHT22;4673;53.458;9.940;2022-10-22T17:07:47;14.70;99.90
9271;DHT22;4673;53.458;9.940;2022-10-22T17:10:13;14.70;99.90
9271;DHT22;4673;53.458;9.940;2022-10-22T17:12:39;14.70;99.90
9271;DHT22;4673;53.458;9.940;2022-10-22T17:15:04;14.70;99.90
9271;DHT22;4673;53.458;9.940;2022-10-22T17:17:31;14.70;99.90
9271;DHT22;4673;53.458;9.940;2022-10-22T17:19:57;14.70;99.90
9271;DHT22;4673;53.458;9.940;2022-10-22T17:22:23;14.70;99.90
9271;DHT22;4673;53.458;9.940;2022-10-22T17:27:36;14.50;99.90
9271;DHT22;4673;53.458;9.940;2022-10-22T17:30:03;14.50;99.90
9271;DHT22;4673;53.458;9.940;2022-10-22T17:32:29;14.50;99.90
9271;DHT22;4673;53.458;9.940;2022-10-22T17:34:55;14.50;99.90
9271;DHT22;4673;53.458;9.940;2022-10-22T17:37:20;14.50;99.90
9271;DHT22;4673;53.458;9.940;2022-10-22T17:39:46;14.50;99.90